Dover, Illinois
Current Conditions -  °F | °C
As of 10:35 PM on Saturday 22 Nov 2014 (Local Time) from KVYS Reporting Station
Overcast Overcast  
Wind Chill: 51°   Ceiling: 6500
Heat Index: 51°   Visibility: 10mi
Dew Point: 47°   Wind: 13mph
Humidity: 86%   Direction: 200°SSW
Pressure: 29.83"   Gusts: NA
Location:  41.44°N, 89.39°W
Report Text: KVYS 230435Z AUTO 20011KT 10SM SCT015 OVC065 11/08 A2983 RMK AO2 T01050083
Loading
Personal Weather Stations






























Interactive Weather Map New forecast layout! Learn more

10-Day Weather Forecast

Advertisements
Track Severe Weather on mobile